Airfield :
LOGIN :

Register | Disclaimer

   EN    FR    IT 

 










Legend :    VFR   Marginal VFR   IFR   Intensive IFR   Very Intensive IFR
Visi :
Ceiling :
>= 8 km
>= 3000ft
5 to 8 km
1000 to 3000 ft
1500m to 5 km
500 to 1000 ft
800 to 1500m
200 to 500 ft
< 800m
< 200 ft
Symbols :   Thunderstorms  Fog  Heavy snow  Heavy precipitations  Wind > 20 kt
SIGMETs :     Misc.  Thunderstorms  Icing  Turbulence  Mountain Waves  Volcanic Ashes







- Airport Elevation : 187 ft


ETNW - Wunstorf AB

CURRENT METAR :
  • 200820Z VRB03KT 9999 -RA FEW020 SCT050 BKN080 14/12 Q1010 BLU BLU

EXPIRED METARs :
  • 200720Z 12006KT 9999 FEW100 BKN130 14/11 Q1010 BLU BLU
  • 200620Z 15005KT 9999 FEW120 BKN160 13/11 Q1009 BLU BLU

TAF TAF ETNW
Valid from the 20 at 05:00 until the 21 at 05:00 UTC


200420Z 2005/2105 19010G20KT 9999 NSW BKN120
TEMPO 2011/2015 20012G22KT 4000 SHRA BKN012TCU
BECMG 2015/2017 21010G20KT 9999 NSW SCT050 BY ETGL
No reported NOTAMs for that airfield.



MET'MAP, your aeronautical weather chart ! - Copyright ORBIFLY December 2007 - Disclaimer

ORBIFLY MET'MAP TEAM :

Programming & Development : Alexandra Zaïnal
Concept & Development : Baudouin d'Aumeries
Co-Development & Prog : Marc-Olivier Méhu
Technical & hardware support : Manuel Goepfert

Contact : metmap@orbifly.com




SOURCES & CREDITS :

   NOAA